sensor_id;sensor_type;location;lat;lon;timestamp;temperature;humidity
10889;DHT22;5497;51.388;6.780;2022-07-29T00:02:21;19.40;90.50
10889;DHT22;5497;51.388;6.780;2022-07-29T00:04:48;19.40;90.60
10889;DHT22;5497;51.388;6.780;2022-07-29T00:07:16;19.40;90.70
10889;DHT22;5497;51.388;6.780;2022-07-29T00:09:43;19.40;90.70
10889;DHT22;5497;51.388;6.780;2022-07-29T00:12:10;19.40;90.70
10889;DHT22;5497;51.388;6.780;2022-07-29T00:14:37;19.40;90.70
10889;DHT22;5497;51.388;6.780;2022-07-29T00:17:04;19.40;90.80
10889;DHT22;5497;51.388;6.780;2022-07-29T00:19:31;19.30;91.10
10889;DHT22;5497;51.388;6.780;2022-07-29T00:21:59;19.40;90.80
10889;DHT22;5497;51.388;6.780;2022-07-29T00:24:27;19.40;90.80
10889;DHT22;5497;51.388;6.780;2022-07-29T00:26:54;19.40;90.80
10889;DHT22;5497;51.388;6.780;2022-07-29T00:29:21;19.40;91.20
10889;DHT22;5497;51.388;6.780;2022-07-29T00:31:48;19.30;90.80
10889;DHT22;5497;51.388;6.780;2022-07-29T00:34:15;19.30;90.80
10889;DHT22;5497;51.388;6.780;2022-07-29T00:37:00;19.30;90.90
10889;DHT22;5497;51.388;6.780;2022-07-29T00:39:28;19.20;90.90
10889;DHT22;5497;51.388;6.780;2022-07-29T00:41:55;19.20;90.90
10889;DHT22;5497;51.388;6.780;2022-07-29T00:44:22;19.20;91.00
10889;DHT22;5497;51.388;6.780;2022-07-29T00:46:50;19.20;91.10
10889;DHT22;5497;51.388;6.780;2022-07-29T00:49:17;19.10;91.00
10889;DHT22;5497;51.388;6.780;2022-07-29T00:51:44;19.00;91.10
10889;DHT22;5497;51.388;6.780;2022-07-29T00:54:11;19.00;91.20
10889;DHT22;5497;51.388;6.780;2022-07-29T00:56:40;20.20;91.90
10889;DHT22;5497;51.388;6.780;2022-07-29T00:59:07;19.00;91.60
10889;DHT22;5497;51.388;6.780;2022-07-29T01:01:33;19.00;91.50
10889;DHT22;5497;51.388;6.780;2022-07-29T01:04:00;18.90;91.50
10889;DHT22;5497;51.388;6.780;2022-07-29T01:06:28;18.90;91.60
10889;DHT22;5497;51.388;6.780;2022-07-29T01:08:55;18.90;91.70
10889;DHT22;5497;51.388;6.780;2022-07-29T01:11:22;18.90;91.80
10889;DHT22;5497;51.388;6.780;2022-07-29T01:13:50;18.90;91.80
10889;DHT22;5497;51.388;6.780;2022-07-29T01:16:21;18.90;91.90
10889;DHT22;5497;51.388;6.780;2022-07-29T01:18:49;18.90;91.80
10889;DHT22;5497;51.388;6.780;2022-07-29T01:24:07;18.80;91.80
10889;DHT22;5497;51.388;6.780;2022-07-29T01:26:41;18.80;91.80
10889;DHT22;5497;51.388;6.780;2022-07-29T01:29:17;18.80;91.90
10889;DHT22;5497;51.388;6.780;2022-07-29T01:31:47;18.80;92.00
10889;DHT22;5497;51.388;6.780;2022-07-29T01:34:17;18.80;92.00
10889;DHT22;5497;51.388;6.780;2022-07-29T01:36:47;18.80;92.10
10889;DHT22;5497;51.388;6.780;2022-07-29T01:39:16;18.80;91.70
10889;DHT22;5497;51.388;6.780;2022-07-29T01:41:47;18.80;92.10
10889;DHT22;5497;51.388;6.780;2022-07-29T01:44:16;18.80;92.10
10889;DHT22;5497;51.388;6.780;2022-07-29T01:46:54;18.80;92.20
10889;DHT22;5497;51.388;6.780;2022-07-29T01:49:25;18.80;92.10
10889;DHT22;5497;51.388;6.780;2022-07-29T01:51:54;18.80;92.20
10889;DHT22;5497;51.388;6.780;2022-07-29T01:54:24;18.80;92.20
10889;DHT22;5497;51.388;6.780;2022-07-29T01:56:53;18.80;92.20
10889;DHT22;5497;51.388;6.780;2022-07-29T01:59:21;18.80;92.20
10889;DHT22;5497;51.388;6.780;2022-07-29T02:01:52;18.80;92.20
10889;DHT22;5497;51.388;6.780;2022-07-29T02:04:20;18.80;92.20
10889;DHT22;5497;51.388;6.780;2022-07-29T02:06:47;18.80;92.60
10889;DHT22;5497;51.388;6.780;2022-07-29T02:09:15;18.80;92.30
10889;DHT22;5497;51.388;6.780;2022-07-29T02:11:46;18.70;92.40
10889;DHT22;5497;51.388;6.780;2022-07-29T02:14:14;18.70;92.50
10889;DHT22;5497;51.388;6.780;2022-07-29T02:16:46;18.70;92.50
10889;DHT22;5497;51.388;6.780;2022-07-29T02:19:18;19.70;92.60
10889;DHT22;5497;51.388;6.780;2022-07-29T02:21:46;18.60;92.50
10889;DHT22;5497;51.388;6.780;2022-07-29T02:24:13;18.70;92.50
10889;DHT22;5497;51.388;6.780;2022-07-29T02:26:41;18.70;92.60
10889;DHT22;5497;51.388;6.780;2022-07-29T02:29:09;18.60;92.70
10889;DHT22;5497;51.388;6.780;2022-07-29T02:31:38;18.60;92.70
10889;DHT22;5497;51.388;6.780;2022-07-29T02:34:06;18.70;92.90
10889;DHT22;5497;51.388;6.780;2022-07-29T02:36:35;18.70;93.20
10889;DHT22;5497;51.388;6.780;2022-07-29T02:39:03;18.80;93.40
10889;DHT22;5497;51.388;6.780;2022-07-29T02:41:30;18.90;93.50
10889;DHT22;5497;51.388;6.780;2022-07-29T02:44:01;18.90;93.30
10889;DHT22;5497;51.388;6.780;2022-07-29T02:46:29;19.00;93.20
10889;DHT22;5497;51.388;6.780;2022-07-29T02:48:58;19.00;93.10
10889;DHT22;5497;51.388;6.780;2022-07-29T02:51:27;19.00;93.10
10889;DHT22;5497;51.388;6.780;2022-07-29T02:53:57;18.90;93.10
10889;DHT22;5497;51.388;6.780;2022-07-29T02:56:25;18.90;93.20
10889;DHT22;5497;51.388;6.780;2022-07-29T02:58:54;18.90;93.20
10889;DHT22;5497;51.388;6.780;2022-07-29T03:01:22;18.90;93.10
10889;DHT22;5497;51.388;6.780;2022-07-29T03:03:50;18.80;93.20
10889;DHT22;5497;51.388;6.780;2022-07-29T03:06:18;18.70;93.20
10889;DHT22;5497;51.388;6.780;2022-07-29T03:08:46;18.70;93.20
10889;DHT22;5497;51.388;6.780;2022-07-29T03:11:15;18.60;93.30
10889;DHT22;5497;51.388;6.780;2022-07-29T03:13:43;18.60;93.40
10889;DHT22;5497;51.388;6.780;2022-07-29T03:16:10;18.50;93.40
10889;DHT22;5497;51.388;6.780;2022-07-29T03:18:38;18.90;93.70
10889;DHT22;5497;51.388;6.780;2022-07-29T03:21:05;18.40;93.50
10889;DHT22;5497;51.388;6.780;2022-07-29T03:23:32;18.30;93.60
10889;DHT22;5497;51.388;6.780;2022-07-29T03:25:59;18.30;93.60
10889;DHT22;5497;51.388;6.780;2022-07-29T03:28:28;18.30;93.80
10889;DHT22;5497;51.388;6.780;2022-07-29T03:30:56;18.30;94.20
10889;DHT22;5497;51.388;6.780;2022-07-29T03:33:23;18.20;94.00
10889;DHT22;5497;51.388;6.780;2022-07-29T03:35:50;18.20;94.10
10889;DHT22;5497;51.388;6.780;2022-07-29T03:38:16;18.20;94.20
10889;DHT22;5497;51.388;6.780;2022-07-29T03:40:44;18.20;94.30
10889;DHT22;5497;51.388;6.780;2022-07-29T03:43:13;18.20;94.80
10889;DHT22;5497;51.388;6.780;2022-07-29T03:45:47;18.30;95.00
10889;DHT22;5497;51.388;6.780;2022-07-29T03:48:15;18.30;94.90
10889;DHT22;5497;51.388;6.780;2022-07-29T03:50:42;18.30;95.60
10889;DHT22;5497;51.388;6.780;2022-07-29T03:53:09;18.30;95.70
10889;DHT22;5497;51.388;6.780;2022-07-29T03:55:37;18.30;95.70
10889;DHT22;5497;51.388;6.780;2022-07-29T03:58:06;18.30;95.60
10889;DHT22;5497;51.388;6.780;2022-07-29T04:00:34;18.20;95.60
10889;DHT22;5497;51.388;6.780;2022-07-29T04:03:02;18.20;95.60
10889;DHT22;5497;51.388;6.780;2022-07-29T04:05:30;18.20;95.70
10889;DHT22;5497;51.388;6.780;2022-07-29T04:07:57;18.10;96.20
10889;DHT22;5497;51.388;6.780;2022-07-29T04:10:24;17.90;96.20
10889;DHT22;5497;51.388;6.780;2022-07-29T04:12:51;17.50;96.60
10889;DHT22;5497;51.388;6.780;2022-07-29T04:15:19;17.20;97.10
10889;DHT22;5497;51.388;6.780;2022-07-29T04:17:46;16.60;97.20
10889;DHT22;5497;51.388;6.780;2022-07-29T04:20:14;16.50;97.00
10889;DHT22;5497;51.388;6.780;2022-07-29T04:22:41;16.40;98.40
10889;DHT22;5497;51.388;6.780;2022-07-29T04:25:07;16.20;99.00
10889;DHT22;5497;51.388;6.780;2022-07-29T04:27:34;16.00;99.40
10889;DHT22;5497;51.388;6.780;2022-07-29T04:30:21;15.80;99.80
10889;DHT22;5497;51.388;6.780;2022-07-29T04:32:47;15.40;99.90
10889;DHT22;5497;51.388;6.780;2022-07-29T04:35:15;15.60;99.90
10889;DHT22;5497;51.388;6.780;2022-07-29T04:37:42;14.90;99.90
10889;DHT22;5497;51.388;6.780;2022-07-29T04:40:09;14.80;99.90
10889;DHT22;5497;51.388;6.780;2022-07-29T04:42:37;14.70;99.90
10889;DHT22;5497;51.388;6.780;2022-07-29T04:45:04;14.70;99.90
10889;DHT22;5497;51.388;6.780;2022-07-29T04:47:31;14.60;99.90
10889;DHT22;5497;51.388;6.780;2022-07-29T04:49:58;14.50;99.90
10889;DHT22;5497;51.388;6.780;2022-07-29T04:52:26;14.40;99.90
10889;DHT22;5497;51.388;6.780;2022-07-29T04:54:52;14.30;99.90
10889;DHT22;5497;51.388;6.780;2022-07-29T04:57:19;14.20;99.90
10889;DHT22;5497;51.388;6.780;2022-07-29T04:59:46;14.10;99.90
10889;DHT22;5497;51.388;6.780;2022-07-29T05:02:12;14.10;99.90
10889;DHT22;5497;51.388;6.780;2022-07-29T05:04:39;14.00;99.90
10889;DHT22;5497;51.388;6.780;2022-07-29T05:07:06;14.00;99.90
10889;DHT22;5497;51.388;6.780;2022-07-29T05:09:34;14.00;99.90
10889;DHT22;5497;51.388;6.780;2022-07-29T05:12:00;14.10;99.90
10889;DHT22;5497;51.388;6.780;2022-07-29T05:14:27;14.10;99.90
10889;DHT22;5497;51.388;6.780;2022-07-29T05:16:54;14.20;99.90
10889;DHT22;5497;51.388;6.780;2022-07-29T05:19:22;14.30;99.90
10889;DHT22;5497;51.388;6.780;2022-07-29T05:21:49;14.30;99.90
10889;DHT22;5497;51.388;6.780;2022-07-29T05:24:15;14.40;99.90
10889;DHT22;5497;51.388;6.780;2022-07-29T05:26:43;14.40;99.90
10889;DHT22;5497;51.388;6.780;2022-07-29T05:29:10;14.50;99.90
10889;DHT22;5497;51.388;6.780;2022-07-29T05:31:37;14.50;99.90
10889;DHT22;5497;51.388;6.780;2022-07-29T05:34:03;14.50;99.90
10889;DHT22;5497;51.388;6.780;2022-07-29T05:36:30;14.40;99.90
10889;DHT22;5497;51.388;6.780;2022-07-29T05:38:57;14.40;99.90
10889;DHT22;5497;51.388;6.780;2022-07-29T05:41:23;14.40;99.90
10889;DHT22;5497;51.388;6.780;2022-07-29T05:43:52;14.50;99.90
10889;DHT22;5497;51.388;6.780;2022-07-29T05:46:19;14.50;99.90
10889;DHT22;5497;51.388;6.780;2022-07-29T05:48:45;14.50;99.90
10889;DHT22;5497;51.388;6.780;2022-07-29T05:51:12;14.60;99.90
10889;DHT22;5497;51.388;6.780;2022-07-29T05:53:39;14.60;99.90
10889;DHT22;5497;51.388;6.780;2022-07-29T05:56:06;14.50;99.90
10889;DHT22;5497;51.388;6.780;2022-07-29T05:58:33;14.40;99.90
10889;DHT22;5497;51.388;6.780;2022-07-29T06:01:01;14.40;99.90
10889;DHT22;5497;51.388;6.780;2022-07-29T06:03:28;14.30;99.90
10889;DHT22;5497;51.388;6.780;2022-07-29T06:05:55;14.40;99.90
10889;DHT22;5497;51.388;6.780;2022-07-29T06:08:22;14.40;99.90
10889;DHT22;5497;51.388;6.780;2022-07-29T06:10:49;14.40;99.90
10889;DHT22;5497;51.388;6.780;2022-07-29T06:13:15;14.50;99.90
10889;DHT22;5497;51.388;6.780;2022-07-29T06:15:42;14.50;99.90
10889;DHT22;5497;51.388;6.780;2022-07-29T06:18:10;14.60;99.90
10889;DHT22;5497;51.388;6.780;2022-07-29T06:20:38;14.80;99.90
10889;DHT22;5497;51.388;6.780;2022-07-29T06:23:05;15.00;99.90
10889;DHT22;5497;51.388;6.780;2022-07-29T06:25:32;15.30;99.90
10889;DHT22;5497;51.388;6.780;2022-07-29T06:28:00;15.70;99.90
10889;DHT22;5497;51.388;6.780;2022-07-29T06:30:26;16.00;99.90
10889;DHT22;5497;51.388;6.780;2022-07-29T06:32:54;16.30;99.90
10889;DHT22;5497;51.388;6.780;2022-07-29T06:35:22;16.50;99.90
10889;DHT22;5497;51.388;6.780;2022-07-29T06:37:48;16.60;99.90
10889;DHT22;5497;51.388;6.780;2022-07-29T06:40:15;16.80;99.90
10889;DHT22;5497;51.388;6.780;2022-07-29T06:42:59;16.90;99.90
10889;DHT22;5497;51.388;6.780;2022-07-29T06:45:26;16.90;99.90
10889;DHT22;5497;51.388;6.780;2022-07-29T06:47:53;16.90;99.90
10889;DHT22;5497;51.388;6.780;2022-07-29T06:50:19;16.90;99.90
10889;DHT22;5497;51.388;6.780;2022-07-29T06:52:48;16.90;99.90
10889;DHT22;5497;51.388;6.780;2022-07-29T06:55:15;16.80;99.90
10889;DHT22;5497;51.388;6.780;2022-07-29T06:57:44;16.80;99.90
10889;DHT22;5497;51.388;6.780;2022-07-29T07:00:12;16.70;99.90
10889;DHT22;5497;51.388;6.780;2022-07-29T07:02:39;16.80;99.90
10889;DHT22;5497;51.388;6.780;2022-07-29T07:05:06;16.80;99.90
10889;DHT22;5497;51.388;6.780;2022-07-29T07:07:33;16.70;99.90
10889;DHT22;5497;51.388;6.780;2022-07-29T07:10:01;16.70;99.90
10889;DHT22;5497;51.388;6.780;2022-07-29T07:12:27;16.70;99.90
10889;DHT22;5497;51.388;6.780;2022-07-29T07:14:54;16.80;99.90
10889;DHT22;5497;51.388;6.780;2022-07-29T07:17:21;16.80;99.90
10889;DHT22;5497;51.388;6.780;2022-07-29T07:19:47;16.90;99.90
10889;DHT22;5497;51.388;6.780;2022-07-29T07:22:15;16.90;99.90
10889;DHT22;5497;51.388;6.780;2022-07-29T07:24:42;17.00;99.90
10889;DHT22;5497;51.388;6.780;2022-07-29T07:27:10;16.90;99.90
10889;DHT22;5497;51.388;6.780;2022-07-29T07:29:36;17.00;99.90
10889;DHT22;5497;51.388;6.780;2022-07-29T07:32:06;17.00;99.90
10889;DHT22;5497;51.388;6.780;2022-07-29T07:34:33;16.10;99.90
10889;DHT22;5497;51.388;6.780;2022-07-29T07:36:59;17.10;99.90
10889;DHT22;5497;51.388;6.780;2022-07-29T07:39:26;17.00;99.90
10889;DHT22;5497;51.388;6.780;2022-07-29T07:41:53;17.00;99.90
10889;DHT22;5497;51.388;6.780;2022-07-29T07:44:21;17.10;99.90
10889;DHT22;5497;51.388;6.780;2022-07-29T07:46:48;17.10;99.90
10889;DHT22;5497;51.388;6.780;2022-07-29T07:49:14;17.00;99.90
10889;DHT22;5497;51.388;6.780;2022-07-29T07:51:41;17.00;99.90
10889;DHT22;5497;51.388;6.780;2022-07-29T07:54:08;16.90;99.90
10889;DHT22;5497;51.388;6.780;2022-07-29T07:56:35;16.80;99.90
10889;DHT22;5497;51.388;6.780;2022-07-29T07:59:01;16.70;99.90
10889;DHT22;5497;51.388;6.780;2022-07-29T08:01:29;16.60;99.90
10889;DHT22;5497;51.388;6.780;2022-07-29T08:03:56;16.60;99.90
10889;DHT22;5497;51.388;6.780;2022-07-29T08:06:23;16.50;99.90
10889;DHT22;5497;51.388;6.780;2022-07-29T08:08:50;16.50;99.90
10889;DHT22;5497;51.388;6.780;2022-07-29T08:11:17;16.40;99.90
10889;DHT22;5497;51.388;6.780;2022-07-29T08:13:44;16.30;99.90
10889;DHT22;5497;51.388;6.780;2022-07-29T08:16:16;17.50;99.90
10889;DHT22;5497;51.388;6.780;2022-07-29T08:18:45;16.20;99.90
10889;DHT22;5497;51.388;6.780;2022-07-29T08:21:24;16.20;99.90
10889;DHT22;5497;51.388;6.780;2022-07-29T08:23:51;16.20;99.90
10889;DHT22;5497;51.388;6.780;2022-07-29T08:26:39;16.20;99.90
10889;DHT22;5497;51.388;6.780;2022-07-29T08:31:36;16.20;99.90
10889;DHT22;5497;51.388;6.780;2022-07-29T08:34:06;16.30;99.90
10889;DHT22;5497;51.388;6.780;2022-07-29T08:36:34;16.40;99.90
10889;DHT22;5497;51.388;6.780;2022-07-29T08:39:03;16.70;99.90
10889;DHT22;5497;51.388;6.780;2022-07-29T08:41:31;17.00;99.90
10889;DHT22;5497;51.388;6.780;2022-07-29T08:43:59;17.20;99.90
10889;DHT22;5497;51.388;6.780;2022-07-29T08:46:27;17.50;99.90
10889;DHT22;5497;51.388;6.780;2022-07-29T08:48:59;17.80;99.90
10889;DHT22;5497;51.388;6.780;2022-07-29T08:51:28;17.80;99.90
10889;DHT22;5497;51.388;6.780;2022-07-29T08:53:54;18.00;99.90
10889;DHT22;5497;51.388;6.780;2022-07-29T08:56:21;18.20;99.90
10889;DHT22;5497;51.388;6.780;2022-07-29T08:58:48;18.30;99.90
10889;DHT22;5497;51.388;6.780;2022-07-29T09:01:16;18.30;99.90
10889;DHT22;5497;51.388;6.780;2022-07-29T09:03:43;18.20;99.90
10889;DHT22;5497;51.388;6.780;2022-07-29T09:06:12;18.10;99.90
10889;DHT22;5497;51.388;6.780;2022-07-29T09:08:40;18.00;99.90
10889;DHT22;5497;51.388;6.780;2022-07-29T09:11:07;18.10;99.90
10889;DHT22;5497;51.388;6.780;2022-07-29T09:13:35;18.10;99.90
10889;DHT22;5497;51.388;6.780;2022-07-29T09:16:02;18.10;99.90
10889;DHT22;5497;51.388;6.780;2022-07-29T09:18:35;18.10;99.90
10889;DHT22;5497;51.388;6.780;2022-07-29T09:21:02;18.10;99.90
10889;DHT22;5497;51.388;6.780;2022-07-29T09:24:02;18.10;99.90
10889;DHT22;5497;51.388;6.780;2022-07-29T09:26:29;18.30;99.90
10889;DHT22;5497;51.388;6.780;2022-07-29T09:28:56;18.20;99.90
10889;DHT22;5497;51.388;6.780;2022-07-29T09:31:26;18.10;99.90
10889;DHT22;5497;51.388;6.780;2022-07-29T09:33:58;18.10;99.90
10889;DHT22;5497;51.388;6.780;2022-07-29T09:36:25;18.10;99.90
10889;DHT22;5497;51.388;6.780;2022-07-29T09:38:56;18.30;99.90
10889;DHT22;5497;51.388;6.780;2022-07-29T09:41:25;18.50;99.90
10889;DHT22;5497;51.388;6.780;2022-07-29T09:43:55;18.70;99.90
10889;DHT22;5497;51.388;6.780;2022-07-29T09:46:23;18.80;99.90
10889;DHT22;5497;51.388;6.780;2022-07-29T09:49:05;19.00;99.90
10889;DHT22;5497;51.388;6.780;2022-07-29T09:51:32;19.10;99.90
10889;DHT22;5497;51.388;6.780;2022-07-29T09:54:00;19.10;99.90
10889;DHT22;5497;51.388;6.780;2022-07-29T09:56:40;19.40;99.90
10889;DHT22;5497;51.388;6.780;2022-07-29T09:59:06;19.60;99.90
10889;DHT22;5497;51.388;6.780;2022-07-29T10:01:33;19.70;99.90
10889;DHT22;5497;51.388;6.780;2022-07-29T10:04:01;19.90;99.90
10889;DHT22;5497;51.388;6.780;2022-07-29T10:06:28;20.10;99.90
10889;DHT22;5497;51.388;6.780;2022-07-29T10:09:06;20.20;99.90
10889;DHT22;5497;51.388;6.780;2022-07-29T10:11:33;20.20;99.90
10889;DHT22;5497;51.388;6.780;2022-07-29T10:14:01;20.40;99.90
10889;DHT22;5497;51.388;6.780;2022-07-29T10:16:28;20.60;99.90
10889;DHT22;5497;51.388;6.780;2022-07-29T10:18:58;21.00;99.90
10889;DHT22;5497;51.388;6.780;2022-07-29T10:21:25;21.40;99.90
10889;DHT22;5497;51.388;6.780;2022-07-29T10:23:52;22.00;99.90
10889;DHT22;5497;51.388;6.780;2022-07-29T10:26:19;22.70;99.90
10889;DHT22;5497;51.388;6.780;2022-07-29T10:28:46;23.30;99.90
10889;DHT22;5497;51.388;6.780;2022-07-29T10:31:15;23.90;99.90
10889;DHT22;5497;51.388;6.780;2022-07-29T10:33:47;24.40;99.90
10889;DHT22;5497;51.388;6.780;2022-07-29T10:36:21;24.90;99.90
10889;DHT22;5497;51.388;6.780;2022-07-29T10:38:55;25.40;99.90
10889;DHT22;5497;51.388;6.780;2022-07-29T10:41:29;25.80;99.90
10889;DHT22;5497;51.388;6.780;2022-07-29T10:44:00;26.00;99.90
10889;DHT22;5497;51.388;6.780;2022-07-29T10:46:28;26.20;99.90
10889;DHT22;5497;51.388;6.780;2022-07-29T10:49:07;26.30;99.90
10889;DHT22;5497;51.388;6.780;2022-07-29T10:54:38;26.50;99.90
10889;DHT22;5497;51.388;6.780;2022-07-29T10:57:14;26.70;99.90
10889;DHT22;5497;51.388;6.780;2022-07-29T10:59:41;26.80;99.90
10889;DHT22;5497;51.388;6.780;2022-07-29T11:05:00;26.50;99.90
10889;DHT22;5497;51.388;6.780;2022-07-29T11:07:28;26.30;99.90
10889;DHT22;5497;51.388;6.780;2022-07-29T11:12:48;26.10;99.90
10889;DHT22;5497;51.388;6.780;2022-07-29T11:15:17;26.10;99.90
10889;DHT22;5497;51.388;6.780;2022-07-29T11:20:33;26.00;99.90
10889;DHT22;5497;51.388;6.780;2022-07-29T11:23:01;25.80;99.90
10889;DHT22;5497;51.388;6.780;2022-07-29T11:25:28;25.70;99.90
10889;DHT22;5497;51.388;6.780;2022-07-29T11:28:07;25.80;99.90
10889;DHT22;5497;51.388;6.780;2022-07-29T11:30:47;26.00;99.90
10889;DHT22;5497;51.388;6.780;2022-07-29T11:33:26;26.20;99.90
10889;DHT22;5497;51.388;6.780;2022-07-29T11:36:08;26.30;99.90
10889;DHT22;5497;51.388;6.780;2022-07-29T11:38:35;26.30;99.90
10889;DHT22;5497;51.388;6.780;2022-07-29T11:41:18;26.20;99.90
10889;DHT22;5497;51.388;6.780;2022-07-29T11:43:46;26.40;99.90
10889;DHT22;5497;51.388;6.780;2022-07-29T11:46:13;26.70;99.90
10889;DHT22;5497;51.388;6.780;2022-07-29T11:48:41;27.10;99.90
10889;DHT22;5497;51.388;6.780;2022-07-29T11:51:10;27.40;99.90
10889;DHT22;5497;51.388;6.780;2022-07-29T11:53:37;27.80;99.90
10889;DHT22;5497;51.388;6.780;2022-07-29T11:56:04;28.00;99.90
10889;DHT22;5497;51.388;6.780;2022-07-29T11:58:34;28.00;99.90
10889;DHT22;5497;51.388;6.780;2022-07-29T12:01:02;28.00;99.90
10889;DHT22;5497;51.388;6.780;2022-07-29T12:03:30;28.00;99.90
10889;DHT22;5497;51.388;6.780;2022-07-29T12:05:57;28.00;99.90
10889;DHT22;5497;51.388;6.780;2022-07-29T12:08:25;28.10;99.90
10889;DHT22;5497;51.388;6.780;2022-07-29T12:10:53;28.10;99.90
10889;DHT22;5497;51.388;6.780;2022-07-29T12:13:19;28.20;99.90
10889;DHT22;5497;51.388;6.780;2022-07-29T12:15:53;28.20;99.90
10889;DHT22;5497;51.388;6.780;2022-07-29T12:18:20;28.00;99.90
10889;DHT22;5497;51.388;6.780;2022-07-29T12:20:47;27.80;99.90
10889;DHT22;5497;51.388;6.780;2022-07-29T12:23:14;27.70;99.90
10889;DHT22;5497;51.388;6.780;2022-07-29T12:25:43;27.70;99.90
10889;DHT22;5497;51.388;6.780;2022-07-29T12:28:11;27.70;99.90
10889;DHT22;5497;51.388;6.780;2022-07-29T12:30:40;27.80;99.90
10889;DHT22;5497;51.388;6.780;2022-07-29T12:33:10;27.80;99.90
10889;DHT22;5497;51.388;6.780;2022-07-29T12:35:37;27.90;99.90
10889;DHT22;5497;51.388;6.780;2022-07-29T12:38:04;28.00;99.90
10889;DHT22;5497;51.388;6.780;2022-07-29T12:40:31;28.20;99.90
10889;DHT22;5497;51.388;6.780;2022-07-29T12:43:06;28.20;99.90
10889;DHT22;5497;51.388;6.780;2022-07-29T12:45:34;28.00;99.90
10889;DHT22;5497;51.388;6.780;2022-07-29T12:48:01;28.00;99.90
10889;DHT22;5497;51.388;6.780;2022-07-29T12:50:28;28.10;99.90
10889;DHT22;5497;51.388;6.780;2022-07-29T12:53:07;28.30;99.90
10889;DHT22;5497;51.388;6.780;2022-07-29T12:55:38;28.40;99.90
10889;DHT22;5497;51.388;6.780;2022-07-29T12:58:06;28.70;99.90
10889;DHT22;5497;51.388;6.780;2022-07-29T13:00:33;29.50;99.90
10889;DHT22;5497;51.388;6.780;2022-07-29T13:03:02;28.90;99.90
10889;DHT22;5497;51.388;6.780;2022-07-29T13:05:39;28.90;99.90
10889;DHT22;5497;51.388;6.780;2022-07-29T13:08:10;28.90;99.90
10889;DHT22;5497;51.388;6.780;2022-07-29T13:10:37;28.90;99.90
10889;DHT22;5497;51.388;6.780;2022-07-29T13:13:05;29.10;99.90
10889;DHT22;5497;51.388;6.780;2022-07-29T13:15:35;29.30;99.90
10889;DHT22;5497;51.388;6.780;2022-07-29T13:18:02;29.20;99.90
10889;DHT22;5497;51.388;6.780;2022-07-29T13:20:30;29.20;99.90
10889;DHT22;5497;51.388;6.780;2022-07-29T13:22:57;29.30;99.90
10889;DHT22;5497;51.388;6.780;2022-07-29T13:25:26;29.40;99.90
10889;DHT22;5497;51.388;6.780;2022-07-29T13:27:54;29.40;99.90
10889;DHT22;5497;51.388;6.780;2022-07-29T13:30:23;29.50;99.90
10889;DHT22;5497;51.388;6.780;2022-07-29T13:32:52;29.60;99.90
10889;DHT22;5497;51.388;6.780;2022-07-29T13:35:20;29.60;99.90
10889;DHT22;5497;51.388;6.780;2022-07-29T13:37:47;29.50;99.90
10889;DHT22;5497;51.388;6.780;2022-07-29T13:40:14;29.40;99.90
10889;DHT22;5497;51.388;6.780;2022-07-29T13:42:42;29.40;99.90
10889;DHT22;5497;51.388;6.780;2022-07-29T13:45:10;29.40;99.90
10889;DHT22;5497;51.388;6.780;2022-07-29T13:47:38;29.20;99.90
10889;DHT22;5497;51.388;6.780;2022-07-29T13:53:35;28.20;99.90
10889;DHT22;5497;51.388;6.780;2022-07-29T13:56:02;27.90;99.90
10889;DHT22;5497;51.388;6.780;2022-07-29T13:58:31;27.90;99.90
10889;DHT22;5497;51.388;6.780;2022-07-29T14:00:58;28.10;99.90
10889;DHT22;5497;51.388;6.780;2022-07-29T14:03:25;28.30;99.90
10889;DHT22;5497;51.388;6.780;2022-07-29T14:05:51;28.40;99.90
10889;DHT22;5497;51.388;6.780;2022-07-29T14:08:18;28.30;99.90
10889;DHT22;5497;51.388;6.780;2022-07-29T14:10:46;28.40;99.90
10889;DHT22;5497;51.388;6.780;2022-07-29T14:13:13;28.40;99.90
10889;DHT22;5497;51.388;6.780;2022-07-29T14:15:39;28.40;99.90
10889;DHT22;5497;51.388;6.780;2022-07-29T14:18:06;28.40;99.90
10889;DHT22;5497;51.388;6.780;2022-07-29T14:20:33;28.30;99.90
10889;DHT22;5497;51.388;6.780;2022-07-29T14:23:00;28.30;99.90
10889;DHT22;5497;51.388;6.780;2022-07-29T14:25:26;28.30;99.90
10889;DHT22;5497;51.388;6.780;2022-07-29T14:27:55;28.50;99.90
10889;DHT22;5497;51.388;6.780;2022-07-29T14:30:21;28.10;99.90
10889;DHT22;5497;51.388;6.780;2022-07-29T14:32:48;27.70;99.90
10889;DHT22;5497;51.388;6.780;2022-07-29T14:35:15;27.50;99.90
10889;DHT22;5497;51.388;6.780;2022-07-29T14:37:42;27.40;99.90
10889;DHT22;5497;51.388;6.780;2022-07-29T14:40:09;27.40;99.90
10889;DHT22;5497;51.388;6.780;2022-07-29T14:42:37;27.60;99.90
10889;DHT22;5497;51.388;6.780;2022-07-29T14:45:07;27.60;99.90
10889;DHT22;5497;51.388;6.780;2022-07-29T14:47:35;27.80;99.90
10889;DHT22;5497;51.388;6.780;2022-07-29T14:50:02;28.00;99.90
10889;DHT22;5497;51.388;6.780;2022-07-29T14:52:29;28.10;99.90
10889;DHT22;5497;51.388;6.780;2022-07-29T14:54:57;28.10;99.90
10889;DHT22;5497;51.388;6.780;2022-07-29T14:57:23;28.10;99.90
10889;DHT22;5497;51.388;6.780;2022-07-29T14:59:50;28.20;99.90
10889;DHT22;5497;51.388;6.780;2022-07-29T15:02:18;28.20;99.90
10889;DHT22;5497;51.388;6.780;2022-07-29T15:04:45;28.00;99.90
10889;DHT22;5497;51.388;6.780;2022-07-29T15:07:13;27.90;99.90
10889;DHT22;5497;51.388;6.780;2022-07-29T15:09:39;28.00;99.90
10889;DHT22;5497;51.388;6.780;2022-07-29T15:12:06;28.00;99.90
10889;DHT22;5497;51.388;6.780;2022-07-29T15:14:33;28.00;99.90
10889;DHT22;5497;51.388;6.780;2022-07-29T15:17:00;28.00;99.90
10889;DHT22;5497;51.388;6.780;2022-07-29T15:19:28;27.80;99.90
10889;DHT22;5497;51.388;6.780;2022-07-29T15:21:55;27.80;99.90
10889;DHT22;5497;51.388;6.780;2022-07-29T15:24:22;27.80;99.90
10889;DHT22;5497;51.388;6.780;2022-07-29T15:26:49;27.70;99.90
10889;DHT22;5497;51.388;6.780;2022-07-29T15:29:15;27.90;99.90
10889;DHT22;5497;51.388;6.780;2022-07-29T15:31:42;27.90;99.90
10889;DHT22;5497;51.388;6.780;2022-07-29T15:34:09;27.90;99.90
10889;DHT22;5497;51.388;6.780;2022-07-29T15:36:37;27.90;99.90
10889;DHT22;5497;51.388;6.780;2022-07-29T15:39:04;27.80;99.90
10889;DHT22;5497;51.388;6.780;2022-07-29T15:41:31;27.80;99.90
10889;DHT22;5497;51.388;6.780;2022-07-29T15:43:57;27.70;99.90
10889;DHT22;5497;51.388;6.780;2022-07-29T15:46:24;27.70;99.90
10889;DHT22;5497;51.388;6.780;2022-07-29T15:49:08;27.70;99.90
10889;DHT22;5497;51.388;6.780;2022-07-29T15:51:36;27.80;99.90
10889;DHT22;5497;51.388;6.780;2022-07-29T15:54:04;27.90;99.90
10889;DHT22;5497;51.388;6.780;2022-07-29T15:56:31;28.00;99.90
10889;DHT22;5497;51.388;6.780;2022-07-29T15:58:57;27.80;99.90
10889;DHT22;5497;51.388;6.780;2022-07-29T16:01:24;27.60;99.90
10889;DHT22;5497;51.388;6.780;2022-07-29T16:03:51;27.40;99.90
10889;DHT22;5497;51.388;6.780;2022-07-29T16:06:17;27.30;99.90
10889;DHT22;5497;51.388;6.780;2022-07-29T16:08:44;27.40;99.90
10889;DHT22;5497;51.388;6.780;2022-07-29T16:11:12;27.40;99.90
10889;DHT22;5497;51.388;6.780;2022-07-29T16:13:39;27.40;99.90